sensor_id;sensor_type;location;lat;lon;timestamp;pressure;altitude;pressure_sealevel;temperature;humidity
57656;BME280;43482;53.334;6.744;2022-12-05T00:01:37;102074.19;;;5.05;100.00
57656;BME280;43482;53.334;6.744;2022-12-05T00:04:06;102054.88;;;4.91;100.00
57656;BME280;43482;53.334;6.744;2022-12-05T00:06:33;102065.59;;;5.03;100.00
57656;BME280;43482;53.334;6.744;2022-12-05T00:08:59;102038.59;;;4.86;100.00
57656;BME280;43482;53.334;6.744;2022-12-05T00:11:28;102047.19;;;5.04;100.00
57656;BME280;43482;53.334;6.744;2022-12-05T00:13:55;102069.84;;;5.05;100.00
57656;BME280;43482;53.334;6.744;2022-12-05T00:16:24;102042.13;;;5.01;100.00
57656;BME280;43482;53.334;6.744;2022-12-05T00:18:50;102065.25;;;5.09;100.00
57656;BME280;43482;53.334;6.744;2022-12-05T00:21:20;102054.97;;;5.06;100.00
57656;BME280;43482;53.334;6.744;2022-12-05T00:23:46;102053.19;;;5.06;100.00
57656;BME280;43482;53.334;6.744;2022-12-05T00:26:12;102042.03;;;5.03;100.00
57656;BME280;43482;53.334;6.744;2022-12-05T00:28:38;102017.91;;;4.98;100.00
57656;BME280;43482;53.334;6.744;2022-12-05T00:31:10;102003.13;;;4.81;100.00
57656;BME280;43482;53.334;6.744;2022-12-05T00:33:36;102001.47;;;4.80;100.00
57656;BME280;43482;53.334;6.744;2022-12-05T00:36:07;102046.16;;;5.07;100.00
57656;BME280;43482;53.334;6.744;2022-12-05T00:38:33;102010.41;;;4.91;100.00
57656;BME280;43482;53.334;6.744;2022-12-05T00:41:03;102052.03;;;5.12;100.00
57656;BME280;43482;53.334;6.744;2022-12-05T00:43:29;102061.03;;;5.06;100.00
57656;BME280;43482;53.334;6.744;2022-12-05T00:45:55;102041.56;;;5.12;100.00
57656;BME280;43482;53.334;6.744;2022-12-05T00:48:20;102034.88;;;5.06;100.00
57656;BME280;43482;53.334;6.744;2022-12-05T00:50:45;102026.34;;;5.03;100.00
57656;BME280;43482;53.334;6.744;2022-12-05T00:53:11;102046.69;;;5.13;100.00
57656;BME280;43482;53.334;6.744;2022-12-05T00:55:36;102041.44;;;5.13;100.00
57656;BME280;43482;53.334;6.744;2022-12-05T00:58:02;102055.78;;;5.22;100.00
57656;BME280;43482;53.334;6.744;2022-12-05T01:00:27;102056.72;;;5.21;100.00
57656;BME280;43482;53.334;6.744;2022-12-05T01:02:52;102049.38;;;5.28;100.00
57656;BME280;43482;53.334;6.744;2022-12-05T01:05:18;102017.84;;;4.99;100.00
57656;BME280;43482;53.334;6.744;2022-12-05T01:07:43;102020.50;;;5.13;100.00
57656;BME280;43482;53.334;6.744;2022-12-05T01:10:08;102044.22;;;5.26;100.00
57656;BME280;43482;53.334;6.744;2022-12-05T01:12:34;102028.81;;;5.06;100.00
57656;BME280;43482;53.334;6.744;2022-12-05T01:14:59;102053.84;;;5.26;100.00
57656;BME280;43482;53.334;6.744;2022-12-05T01:17:25;102040.84;;;5.24;100.00
57656;BME280;43482;53.334;6.744;2022-12-05T01:19:51;102031.66;;;5.17;100.00
57656;BME280;43482;53.334;6.744;2022-12-05T01:22:16;102042.69;;;5.22;100.00
57656;BME280;43482;53.334;6.744;2022-12-05T01:24:42;102061.09;;;5.36;100.00
57656;BME280;43482;53.334;6.744;2022-12-05T01:27:07;102047.19;;;5.20;100.00
57656;BME280;43482;53.334;6.744;2022-12-05T01:29:33;102053.94;;;5.24;100.00
57656;BME280;43482;53.334;6.744;2022-12-05T01:31:58;102071.84;;;5.32;100.00
57656;BME280;43482;53.334;6.744;2022-12-05T01:34:24;102059.16;;;5.24;100.00
57656;BME280;43482;53.334;6.744;2022-12-05T01:36:49;102069.16;;;5.33;100.00
57656;BME280;43482;53.334;6.744;2022-12-05T01:39:15;102047.44;;;5.15;100.00
57656;BME280;43482;53.334;6.744;2022-12-05T01:41:43;102050.56;;;5.22;100.00
57656;BME280;43482;53.334;6.744;2022-12-05T01:46:36;102058.81;;;5.30;100.00
57656;BME280;43482;53.334;6.744;2022-12-05T01:49:20;102051.25;;;5.26;100.00
57656;BME280;43482;53.334;6.744;2022-12-05T01:51:49;102050.28;;;5.27;100.00
57656;BME280;43482;53.334;6.744;2022-12-05T01:54:16;102057.16;;;5.29;100.00
57656;BME280;43482;53.334;6.744;2022-12-05T01:56:46;102035.72;;;5.23;100.00
57656;BME280;43482;53.334;6.744;2022-12-05T01:59:13;102040.69;;;5.27;100.00
57656;BME280;43482;53.334;6.744;2022-12-05T02:01:39;102043.31;;;5.27;100.00
57656;BME280;43482;53.334;6.744;2022-12-05T02:04:05;102072.06;;;5.43;100.00
57656;BME280;43482;53.334;6.744;2022-12-05T02:06:31;102052.59;;;5.17;100.00
57656;BME280;43482;53.334;6.744;2022-12-05T02:08:57;102051.31;;;5.24;100.00
57656;BME280;43482;53.334;6.744;2022-12-05T02:11:25;102064.63;;;5.35;100.00
57656;BME280;43482;53.334;6.744;2022-12-05T02:16:57;102056.44;;;5.42;100.00
57656;BME280;43482;53.334;6.744;2022-12-05T02:25:39;102059.66;;;5.47;100.00
57656;BME280;43482;53.334;6.744;2022-12-05T02:39:20;102047.84;;;5.40;100.00
57656;BME280;43482;53.334;6.744;2022-12-05T02:41:53;102041.84;;;5.38;100.00
57656;BME280;43482;53.334;6.744;2022-12-05T02:44:39;102037.72;;;5.33;100.00
57656;BME280;43482;53.334;6.744;2022-12-05T02:47:07;102050.44;;;5.40;100.00
57656;BME280;43482;53.334;6.744;2022-12-05T02:49:35;102060.16;;;5.38;100.00
57656;BME280;43482;53.334;6.744;2022-12-05T02:52:05;102031.25;;;5.25;100.00
57656;BME280;43482;53.334;6.744;2022-12-05T02:54:37;102046.84;;;5.26;100.00
57656;BME280;43482;53.334;6.744;2022-12-05T02:57:04;102051.66;;;5.34;100.00
57656;BME280;43482;53.334;6.744;2022-12-05T02:59:30;102050.06;;;5.31;100.00
57656;BME280;43482;53.334;6.744;2022-12-05T03:01:55;102064.22;;;5.43;100.00
57656;BME280;43482;53.334;6.744;2022-12-05T03:04:23;102050.06;;;5.31;100.00
57656;BME280;43482;53.334;6.744;2022-12-05T03:12:24;102050.56;;;5.22;100.00
57656;BME280;43482;53.334;6.744;2022-12-05T03:14:59;102029.56;;;5.08;100.00
57656;BME280;43482;53.334;6.744;2022-12-05T03:17:30;102026.25;;;5.20;100.00
57656;BME280;43482;53.334;6.744;2022-12-05T03:22:48;102033.31;;;5.18;100.00
57656;BME280;43482;53.334;6.744;2022-12-05T03:25:16;102030.13;;;5.13;100.00
57656;BME280;43482;53.334;6.744;2022-12-05T03:27:51;102053.28;;;5.21;100.00
57656;BME280;43482;53.334;6.744;2022-12-05T03:30:18;102061.03;;;5.22;100.00
57656;BME280;43482;53.334;6.744;2022-12-05T03:33:15;102063.56;;;5.24;100.00
57656;BME280;43482;53.334;6.744;2022-12-05T03:36:02;102065.91;;;5.28;100.00
57656;BME280;43482;53.334;6.744;2022-12-05T03:38:40;102065.91;;;5.28;100.00
57656;BME280;43482;53.334;6.744;2022-12-05T03:43:59;102057.50;;;5.23;100.00
57656;BME280;43482;53.334;6.744;2022-12-05T03:49:17;102068.63;;;5.27;100.00
57656;BME280;43482;53.334;6.744;2022-12-05T03:54:55;102057.91;;;5.15;100.00
57656;BME280;43482;53.334;6.744;2022-12-05T03:57:28;102058.50;;;5.21;100.00
57656;BME280;43482;53.334;6.744;2022-12-05T04:00:00;102036.47;;;5.09;100.00
57656;BME280;43482;53.334;6.744;2022-12-05T04:02:57;102071.34;;;5.25;100.00
57656;BME280;43482;53.334;6.744;2022-12-05T04:08:17;102040.03;;;5.08;100.00
57656;BME280;43482;53.334;6.744;2022-12-05T04:10:46;102062.03;;;5.20;100.00
57656;BME280;43482;53.334;6.744;2022-12-05T04:13:29;102071.09;;;5.30;100.00
57656;BME280;43482;53.334;6.744;2022-12-05T04:16:01;102069.38;;;5.29;100.00
57656;BME280;43482;53.334;6.744;2022-12-05T04:18:56;102067.34;;;5.18;100.00
57656;BME280;43482;53.334;6.744;2022-12-05T04:21:26;102050.88;;;5.16;100.00
57656;BME280;43482;53.334;6.744;2022-12-05T04:24:12;102049.22;;;5.15;100.00
57656;BME280;43482;53.334;6.744;2022-12-05T04:27:05;102057.25;;;5.12;100.00
57656;BME280;43482;53.334;6.744;2022-12-05T04:29:39;102040.53;;;5.14;100.00
57656;BME280;43482;53.334;6.744;2022-12-05T04:32:10;102045.66;;;5.16;100.00
57656;BME280;43482;53.334;6.744;2022-12-05T04:34:37;102085.94;;;5.29;100.00
57656;BME280;43482;53.334;6.744;2022-12-05T04:37:09;102049.91;;;5.19;100.00
57656;BME280;43482;53.334;6.744;2022-12-05T04:39:48;102078.84;;;5.31;100.00
57656;BME280;43482;53.334;6.744;2022-12-05T04:42:27;102082.31;;;5.32;100.00
57656;BME280;43482;53.334;6.744;2022-12-05T04:44:57;102070.63;;;5.38;100.00
57656;BME280;43482;53.334;6.744;2022-12-05T04:47:30;102074.53;;;5.30;100.00
57656;BME280;43482;53.334;6.744;2022-12-05T04:49:57;102087.78;;;5.43;100.00
57656;BME280;43482;53.334;6.744;2022-12-05T04:52:24;102073.50;;;5.33;100.00
57656;BME280;43482;53.334;6.744;2022-12-05T04:55:00;102093.28;;;5.39;100.00
57656;BME280;43482;53.334;6.744;2022-12-05T04:57:57;102097.25;;;5.46;100.00
57656;BME280;43482;53.334;6.744;2022-12-05T05:00:27;102098.00;;;5.48;100.00
57656;BME280;43482;53.334;6.744;2022-12-05T05:03:05;102090.66;;;5.39;100.00
57656;BME280;43482;53.334;6.744;2022-12-05T05:05:33;102070.31;;;5.28;100.00
57656;BME280;43482;53.334;6.744;2022-12-05T05:07:59;102079.44;;;5.36;100.00
57656;BME280;43482;53.334;6.744;2022-12-05T05:10:54;102087.72;;;5.45;100.00
57656;BME280;43482;53.334;6.744;2022-12-05T05:13:22;102082.63;;;5.42;100.00
57656;BME280;43482;53.334;6.744;2022-12-05T05:15:47;102061.97;;;5.21;100.00
57656;BME280;43482;53.334;6.744;2022-12-05T05:18:13;102088.03;;;5.39;100.00
57656;BME280;43482;53.334;6.744;2022-12-05T05:20:38;102080.53;;;5.32;100.00
57656;BME280;43482;53.334;6.744;2022-12-05T05:23:03;102084.66;;;5.36;100.00
57656;BME280;43482;53.334;6.744;2022-12-05T05:25:29;102100.88;;;5.43;100.00
57656;BME280;43482;53.334;6.744;2022-12-05T05:27:55;102096.31;;;5.47;100.00
57656;BME280;43482;53.334;6.744;2022-12-05T05:30:22;102091.09;;;5.47;100.00
57656;BME280;43482;53.334;6.744;2022-12-05T05:32:48;102077.91;;;5.32;100.00
57656;BME280;43482;53.334;6.744;2022-12-05T05:35:14;102097.25;;;5.46;100.00
57656;BME280;43482;53.334;6.744;2022-12-05T05:37:40;102088.03;;;5.39;100.00
57656;BME280;43482;53.334;6.744;2022-12-05T05:40:08;102104.56;;;5.55;100.00
57656;BME280;43482;53.334;6.744;2022-12-05T05:42:34;102089.56;;;5.43;100.00
57656;BME280;43482;53.334;6.744;2022-12-05T05:44:59;102098.69;;;5.51;100.00
57656;BME280;43482;53.334;6.744;2022-12-05T05:47:25;102104.69;;;5.53;100.00
57656;BME280;43482;53.334;6.744;2022-12-05T05:49:50;102103.81;;;5.53;100.00
57656;BME280;43482;53.334;6.744;2022-12-05T05:52:15;102100.53;;;5.49;100.00
57656;BME280;43482;53.334;6.744;2022-12-05T05:54:41;102103.22;;;5.48;100.00
57656;BME280;43482;53.334;6.744;2022-12-05T05:57:06;102075.38;;;5.31;100.00
57656;BME280;43482;53.334;6.744;2022-12-05T05:59:32;102101.56;;;5.47;100.00
57656;BME280;43482;53.334;6.744;2022-12-05T06:01:57;102067.97;;;5.23;100.00
57656;BME280;43482;53.334;6.744;2022-12-05T06:04:22;102077.06;;;5.32;100.00
57656;BME280;43482;53.334;6.744;2022-12-05T06:06:48;102100.03;;;5.43;100.00
57656;BME280;43482;53.334;6.744;2022-12-05T06:09:13;102100.38;;;5.36;100.00
57656;BME280;43482;53.334;6.744;2022-12-05T06:11:39;102102.31;;;5.33;100.00
57656;BME280;43482;53.334;6.744;2022-12-05T06:14:04;102102.22;;;5.34;100.00
57656;BME280;43482;53.334;6.744;2022-12-05T06:16:30;102106.72;;;5.32;100.00
57656;BME280;43482;53.334;6.744;2022-12-05T06:18:56;102084.94;;;5.32;100.00
57656;BME280;43482;53.334;6.744;2022-12-05T06:21:22;102085.19;;;5.27;100.00
57656;BME280;43482;53.334;6.744;2022-12-05T06:23:48;102105.09;;;5.46;100.00
57656;BME280;43482;53.334;6.744;2022-12-05T06:26:17;102098.53;;;5.39;100.00
57656;BME280;43482;53.334;6.744;2022-12-05T06:28:43;102076.47;;;5.11;100.00
57656;BME280;43482;53.334;6.744;2022-12-05T06:31:21;102101.03;;;5.24;100.00
57656;BME280;43482;53.334;6.744;2022-12-05T06:33:47;102108.75;;;5.27;100.00
57656;BME280;43482;53.334;6.744;2022-12-05T06:36:15;102089.81;;;5.22;100.00
57656;BME280;43482;53.334;6.744;2022-12-05T06:38:41;102101.81;;;5.26;100.00
57656;BME280;43482;53.334;6.744;2022-12-05T06:41:08;102117.69;;;5.39;100.00
57656;BME280;43482;53.334;6.744;2022-12-05T06:43:34;102095.31;;;5.33;100.00
57656;BME280;43482;53.334;6.744;2022-12-05T06:46:03;102094.22;;;5.22;100.00
57656;BME280;43482;53.334;6.744;2022-12-05T06:48:28;102108.31;;;5.35;100.00
57656;BME280;43482;53.334;6.744;2022-12-05T06:50:54;102107.72;;;5.30;100.00
57656;BME280;43482;53.334;6.744;2022-12-05T06:53:19;102096.56;;;5.26;100.00
57656;BME280;43482;53.334;6.744;2022-12-05T06:55:55;102098.66;;;5.35;100.00
57656;BME280;43482;53.334;6.744;2022-12-05T06:58:20;102077.81;;;5.18;100.00
57656;BME280;43482;53.334;6.744;2022-12-05T07:00:46;102082.28;;;5.16;100.00
57656;BME280;43482;53.334;6.744;2022-12-05T07:03:30;102113.22;;;5.41;100.00
57656;BME280;43482;53.334;6.744;2022-12-05T07:05:59;102090.25;;;5.30;100.00
57656;BME280;43482;53.334;6.744;2022-12-05T07:08:24;102051.41;;;5.07;100.00
57656;BME280;43482;53.334;6.744;2022-12-05T07:10:51;102103.84;;;5.37;100.00
57656;BME280;43482;53.334;6.744;2022-12-05T07:13:16;102105.44;;;5.40;100.00
57656;BME280;43482;53.334;6.744;2022-12-05T07:15:42;102098.94;;;5.47;100.00
57656;BME280;43482;53.334;6.744;2022-12-05T07:18:07;102102.31;;;5.49;100.00
57656;BME280;43482;53.334;6.744;2022-12-05T07:20:32;102070.63;;;5.38;100.00
57656;BME280;43482;53.334;6.744;2022-12-05T07:22:58;102090.34;;;5.45;100.00
57656;BME280;43482;53.334;6.744;2022-12-05T07:25:23;102085.84;;;5.47;100.00
57656;BME280;43482;53.334;6.744;2022-12-05T07:27:49;102100.47;;;5.51;100.00
57656;BME280;43482;53.334;6.744;2022-12-05T07:30:14;102084.97;;;5.46;100.00
57656;BME280;43482;53.334;6.744;2022-12-05T07:32:40;102083.31;;;5.45;100.00
57656;BME280;43482;53.334;6.744;2022-12-05T07:35:05;102076.38;;;5.44;100.00
57656;BME280;43482;53.334;6.744;2022-12-05T07:37:30;102066.91;;;5.42;100.00
57656;BME280;43482;53.334;6.744;2022-12-05T07:39:56;102083.63;;;5.55;100.00
57656;BME280;43482;53.334;6.744;2022-12-05T07:42:21;102066.75;;;5.45;100.00
57656;BME280;43482;53.334;6.744;2022-12-05T07:44:47;102082.78;;;5.54;100.00
57656;BME280;43482;53.334;6.744;2022-12-05T07:47:12;102078.75;;;5.49;100.00
57656;BME280;43482;53.334;6.744;2022-12-05T07:49:37;102071.66;;;5.35;100.00
57656;BME280;43482;53.334;6.744;2022-12-05T07:52:03;102061.59;;;5.43;100.00
57656;BME280;43482;53.334;6.744;2022-12-05T07:54:28;102090.88;;;5.66;100.00
57656;BME280;43482;53.334;6.744;2022-12-05T07:56:54;102086.75;;;5.46;100.00
57656;BME280;43482;53.334;6.744;2022-12-05T07:59:19;102080.44;;;5.50;100.00
57656;BME280;43482;53.334;6.744;2022-12-05T08:01:45;102086.34;;;5.38;100.00
57656;BME280;43482;53.334;6.744;2022-12-05T08:04:10;102092.94;;;5.45;100.00
57656;BME280;43482;53.334;6.744;2022-12-05T08:06:36;102079.84;;;5.45;100.00
57656;BME280;43482;53.334;6.744;2022-12-05T08:09:01;102096.31;;;5.47;100.00
57656;BME280;43482;53.334;6.744;2022-12-05T08:11:30;102088.28;;;5.50;100.00
57656;BME280;43482;53.334;6.744;2022-12-05T08:13:59;102095.94;;;5.53;100.00
57656;BME280;43482;53.334;6.744;2022-12-05T08:16:26;102066.53;;;5.33;100.00
57656;BME280;43482;53.334;6.744;2022-12-05T08:19:00;102093.25;;;5.54;100.00
57656;BME280;43482;53.334;6.744;2022-12-05T08:21:27;102096.22;;;5.48;100.00
57656;BME280;43482;53.334;6.744;2022-12-05T08:23:53;102074.69;;;5.43;100.00
57656;BME280;43482;53.334;6.744;2022-12-05T08:26:26;102079.44;;;5.36;100.00
57656;BME280;43482;53.334;6.744;2022-12-05T08:28:54;102081.09;;;5.38;100.00
57656;BME280;43482;53.334;6.744;2022-12-05T08:31:21;102098.50;;;5.54;100.00
57656;BME280;43482;53.334;6.744;2022-12-05T08:33:48;102080.94;;;5.41;100.00
57656;BME280;43482;53.334;6.744;2022-12-05T08:36:14;102097.59;;;5.55;100.00
57656;BME280;43482;53.334;6.744;2022-12-05T08:38:40;102082.97;;;5.35;100.00
57656;BME280;43482;53.334;6.744;2022-12-05T08:41:09;102102.13;;;5.52;100.00
57656;BME280;43482;53.334;6.744;2022-12-05T08:43:34;102106.53;;;5.51;100.00
57656;BME280;43482;53.334;6.744;2022-12-05T08:46:00;102100.53;;;5.49;100.00
57656;BME280;43482;53.334;6.744;2022-12-05T08:48:27;102104.94;;;5.49;100.00
57656;BME280;43482;53.334;6.744;2022-12-05T08:50:53;102095.63;;;5.59;100.00
57656;BME280;43482;53.334;6.744;2022-12-05T08:53:18;102092.22;;;5.57;100.00
57656;BME280;43482;53.334;6.744;2022-12-05T08:55:44;102105.94;;;5.62;100.00
57656;BME280;43482;53.334;6.744;2022-12-05T08:58:13;102096.81;;;5.53;100.00
57656;BME280;43482;53.334;6.744;2022-12-05T09:00:39;102090.81;;;5.51;100.00
57656;BME280;43482;53.334;6.744;2022-12-05T09:03:05;102071.50;;;5.38;100.00
57656;BME280;43482;53.334;6.744;2022-12-05T09:05:31;102089.72;;;5.55;100.00
57656;BME280;43482;53.334;6.744;2022-12-05T09:07:57;102102.03;;;5.69;100.00
57656;BME280;43482;53.334;6.744;2022-12-05T09:10:23;102096.59;;;5.72;100.00
57656;BME280;43482;53.334;6.744;2022-12-05T09:12:48;102106.78;;;5.63;100.00
57656;BME280;43482;53.334;6.744;2022-12-05T09:15:16;102092.66;;;5.65;100.00
57656;BME280;43482;53.334;6.744;2022-12-05T09:17:41;102086.72;;;5.62;100.00
57656;BME280;43482;53.334;6.744;2022-12-05T09:20:07;102096.25;;;5.78;100.00
57656;BME280;43482;53.334;6.744;2022-12-05T09:22:33;102084.97;;;5.62;100.00
57656;BME280;43482;53.334;6.744;2022-12-05T09:24:58;102090.72;;;5.69;100.00
57656;BME280;43482;53.334;6.744;2022-12-05T09:27:27;102097.47;;;5.73;100.00
57656;BME280;43482;53.334;6.744;2022-12-05T09:29:52;102096.44;;;5.75;100.00
57656;BME280;43482;53.334;6.744;2022-12-05T09:32:18;102110.59;;;5.87;100.00
57656;BME280;43482;53.334;6.744;2022-12-05T09:34:43;102104.22;;;5.77;100.00
57656;BME280;43482;53.334;6.744;2022-12-05T09:37:08;102122.34;;;5.96;100.00
57656;BME280;43482;53.334;6.744;2022-12-05T09:39:34;102085.88;;;5.77;100.00
57656;BME280;43482;53.334;6.744;2022-12-05T09:44:59;102112.25;;;5.74;100.00
57656;BME280;43482;53.334;6.744;2022-12-05T09:47:33;102114.78;;;5.75;100.00
57656;BME280;43482;53.334;6.744;2022-12-05T09:50:21;102103.06;;;5.67;100.00
57656;BME280;43482;53.334;6.744;2022-12-05T09:58:37;102120.19;;;5.72;100.00
57656;BME280;43482;53.334;6.744;2022-12-05T10:18:02;102094.09;;;5.55;100.00
57656;BME280;43482;53.334;6.744;2022-12-05T10:21:12;102107.19;;;5.55;100.00
57656;BME280;43482;53.334;6.744;2022-12-05T10:26:05;102113.53;;;5.67;100.00
57656;BME280;43482;53.334;6.744;2022-12-05T10:28:39;102090.56;;;5.56;100.00
57656;BME280;43482;53.334;6.744;2022-12-05T10:31:10;102115.31;;;5.66;100.00
57656;BME280;43482;53.334;6.744;2022-12-05T10:33:43;102094.47;;;5.49;100.00
57656;BME280;43482;53.334;6.744;2022-12-05T10:36:13;102096.13;;;5.50;100.00
57656;BME280;43482;53.334;6.744;2022-12-05T10:38:40;102098.69;;;5.51;100.00
57656;BME280;43482;53.334;6.744;2022-12-05T10:41:08;102105.75;;;5.65;100.00
57656;BME280;43482;53.334;6.744;2022-12-05T10:43:35;102116.22;;;5.65;100.00
57656;BME280;43482;53.334;6.744;2022-12-05T10:46:04;102084.00;;;5.49;100.00
57656;BME280;43482;53.334;6.744;2022-12-05T10:48:34;102122.78;;;5.72;100.00
57656;BME280;43482;53.334;6.744;2022-12-05T10:51:02;102104.41;;;5.58;100.00
57656;BME280;43482;53.334;6.744;2022-12-05T10:53:41;102111.75;;;5.67;100.00
57656;BME280;43482;53.334;6.744;2022-12-05T10:59:16;102103.31;;;5.62;100.00
57656;BME280;43482;53.334;6.744;2022-12-05T11:01:46;102077.63;;;5.53;100.00
57656;BME280;43482;53.334;6.744;2022-12-05T11:04:25;102082.47;;;5.45;100.00
57656;BME280;43482;53.334;6.744;2022-12-05T11:06:54;102085.66;;;5.50;100.00
57656;BME280;43482;53.334;6.744;2022-12-05T11:09:32;102088.69;;;5.58;100.00
57656;BME280;43482;53.334;6.744;2022-12-05T11:12:20;102099.66;;;5.65;100.00
57656;BME280;43482;53.334;6.744;2022-12-05T11:17:26;102101.34;;;5.66;100.00
57656;BME280;43482;53.334;6.744;2022-12-05T11:19:53;102090.16;;;5.48;100.00
57656;BME280;43482;53.334;6.744;2022-12-05T11:22:19;102088.38;;;5.48;100.00
57656;BME280;43482;53.334;6.744;2022-12-05T11:24:46;102081.94;;;5.54;100.00
57656;BME280;43482;53.334;6.744;2022-12-05T11:29:40;102099.31;;;5.71;100.00
57656;BME280;43482;53.334;6.744;2022-12-05T11:32:17;102083.75;;;5.68;100.00
57656;BME280;43482;53.334;6.744;2022-12-05T11:34:51;102081.81;;;5.71;100.00
57656;BME280;43482;53.334;6.744;2022-12-05T11:37:24;102093.16;;;5.72;100.00
57656;BME280;43482;53.334;6.744;2022-12-05T11:39:51;102088.84;;;5.71;100.00
57656;BME280;43482;53.334;6.744;2022-12-05T11:43:21;102075.69;;;5.56;100.00
57656;BME280;43482;53.334;6.744;2022-12-05T11:53:54;102091.53;;;5.69;100.00
57656;BME280;43482;53.334;6.744;2022-12-05T11:56:54;102066.03;;;5.57;100.00
57656;BME280;43482;53.334;6.744;2022-12-05T12:04:51;102073.25;;;5.53;100.00
57656;BME280;43482;53.334;6.744;2022-12-05T12:07:21;102070.44;;;5.56;100.00
57656;BME280;43482;53.334;6.744;2022-12-05T12:20:39;102073.63;;;5.77;100.00
57656;BME280;43482;53.334;6.744;2022-12-05T12:23:12;102074.09;;;5.84;100.00
57656;BME280;43482;53.334;6.744;2022-12-05T12:26:11;102029.56;;;5.54;100.00
57656;BME280;43482;53.334;6.744;2022-12-05T12:29:03;102073.06;;;5.87;100.00
57656;BME280;43482;53.334;6.744;2022-12-05T12:34:40;102060.69;;;5.74;100.00
57656;BME280;43482;53.334;6.744;2022-12-05T12:40:11;102050.34;;;5.87;100.00
57656;BME280;43482;53.334;6.744;2022-12-05T12:42:58;102050.53;;;5.84;100.00
57656;BME280;43482;53.334;6.744;2022-12-05T12:50:29;102041.44;;;5.90;100.00
57656;BME280;43482;53.334;6.744;2022-12-05T12:53:08;102040.13;;;5.83;100.00
57656;BME280;43482;53.334;6.744;2022-12-05T13:07:19;102015.53;;;5.55;100.00
57656;BME280;43482;53.334;6.744;2022-12-05T13:09:57;102035.59;;;5.70;100.00
57656;BME280;43482;53.334;6.744;2022-12-05T13:12:28;102028.75;;;5.68;100.00
57656;BME280;43482;53.334;6.744;2022-12-05T13:15:03;102042.00;;;5.81;100.00
57656;BME280;43482;53.334;6.744;2022-12-05T13:17:31;102042.34;;;5.74;100.00
57656;BME280;43482;53.334;6.744;2022-12-05T13:19:57;102018.59;;;5.47;100.00
57656;BME280;43482;53.334;6.744;2022-12-05T13:22:25;102014.63;;;5.56;100.00
57656;BME280;43482;53.334;6.744;2022-12-05T13:24:52;102042.06;;;5.65;100.00
57656;BME280;43482;53.334;6.744;2022-12-05T13:27:23;102019.84;;;5.56;100.00
57656;BME280;43482;53.334;6.744;2022-12-05T13:29:53;102048.97;;;5.66;100.00
57656;BME280;43482;53.334;6.744;2022-12-05T13:32:27;102037.03;;;5.76;100.00
57656;BME280;43482;53.334;6.744;2022-12-05T13:34:54;102042.34;;;5.74;100.00
57656;BME280;43482;53.334;6.744;2022-12-05T13:37:24;102029.44;;;5.71;100.00
57656;BME280;43482;53.334;6.744;2022-12-05T13:40:48;102021.78;;;5.68;100.00
57656;BME280;43482;53.334;6.744;2022-12-05T13:43:27;102034.06;;;5.52;100.00
57656;BME280;43482;53.334;6.744;2022-12-05T13:46:01;102027.72;;;5.56;100.00
57656;BME280;43482;53.334;6.744;2022-12-05T13:48:31;102041.50;;;5.74;100.00
57656;BME280;43482;53.334;6.744;2022-12-05T13:51:10;102045.91;;;5.73;100.00
57656;BME280;43482;53.334;6.744;2022-12-05T13:53:43;102022.78;;;5.66;100.00
57656;BME280;43482;53.334;6.744;2022-12-05T14:03:55;102041.50;;;5.74;100.00
57656;BME280;43482;53.334;6.744;2022-12-05T14:17:23;102034.88;;;5.68;100.00
57656;BME280;43482;53.334;6.744;2022-12-05T14:33:42;102053.19;;;5.68;100.00
57656;BME280;43482;53.334;6.744;2022-12-05T14:36:14;102047.78;;;5.71;100.00
57656;BME280;43482;53.334;6.744;2022-12-05T14:38:41;102051.31;;;5.70;100.00
57656;BME280;43482;53.334;6.744;2022-12-05T14:41:26;102055.63;;;5.71;100.00
57656;BME280;43482;53.334;6.744;2022-12-05T14:43:55;102034.81;;;5.54;100.00
57656;BME280;43482;53.334;6.744;2022-12-05T14:46:31;102043.06;;;5.62;100.00
57656;BME280;43482;53.334;6.744;2022-12-05T14:52:09;102057.84;;;5.63;100.00
57656;BME280;43482;53.334;6.744;2022-12-05T14:54:37;102056.31;;;5.59;100.00
57656;BME280;43482;53.334;6.744;2022-12-05T14:57:11;102028.75;;;5.53;100.00
57656;BME280;43482;53.334;6.744;2022-12-05T14:59:50;102042.88;;;5.65;100.00
57656;BME280;43482;53.334;6.744;2022-12-05T15:02:23;102051.56;;;5.66;100.00
57656;BME280;43482;53.334;6.744;2022-12-05T15:04:59;102050.66;;;5.67;100.00
57656;BME280;43482;53.334;6.744;2022-12-05T15:07:33;102053.78;;;5.73;100.00
57656;BME280;43482;53.334;6.744;2022-12-05T15:12:40;102046.34;;;5.66;100.00
57656;BME280;43482;53.334;6.744;2022-12-05T15:15:16;102046.59;;;5.61;100.00
57656;BME280;43482;53.334;6.744;2022-12-05T15:17:47;102040.53;;;5.61;100.00
57656;BME280;43482;53.334;6.744;2022-12-05T15:26:25;102068.72;;;5.71;100.00
57656;BME280;43482;53.334;6.744;2022-12-05T15:29:09;102069.50;;;5.73;100.00
57656;BME280;43482;53.334;6.744;2022-12-05T15:31:44;102048.47;;;5.59;100.00
57656;BME280;43482;53.334;6.744;2022-12-05T15:34:26;102072.69;;;5.78;100.00
57656;BME280;43482;53.334;6.744;2022-12-05T15:42:30;102067.56;;;5.61;100.00
57656;BME280;43482;53.334;6.744;2022-12-05T15:48:24;102073.28;;;5.68;100.00
57656;BME280;43482;53.334;6.744;2022-12-05T15:50:39;102060.81;;;5.57;100.00
57656;BME280;43482;53.334;6.744;2022-12-05T15:53:14;102072.25;;;5.70;100.00
57656;BME280;43482;53.334;6.744;2022-12-05T15:55:46;102053.22;;;5.52;100.00
57656;BME280;43482;53.334;6.744;2022-12-05T16:00:40;102054.72;;;5.56;100.00
57656;BME280;43482;53.334;6.744;2022-12-05T16:06:00;102076.59;;;5.71;100.00
57656;BME280;43482;53.334;6.744;2022-12-05T16:08:28;102080.66;;;5.61;100.00
57656;BME280;43482;53.334;6.744;2022-12-05T16:11:11;102080.88;;;5.72;100.00